Time;durP1;ratioP1;P1;durP2;ratioP2;P2;SDS_P1;SDS_P2;PMS_P1;PMS_P2;Temp;Humidity;BMP_temperature;BMP_pressure;BME280_temperature;BME280_humidity;BME280_pressure;Samples;Min_cycle;Max_cycle;Signal;HPM_P1;HPM_P2
2022/09/10 00:01:46;;;;;;;4.40;1.53;;;14.80;1.00;;;;;;5080733;28;20408;-78
2022/09/10 00:04:15;;;;;;;4.60;2.00;;;14.80;1.00;;;;;;5083378;28;20411;-77
2022/09/10 00:06:42;;;;;;;8.60;1.73;;;14.70;1.20;;;;;;5072926;28;20187;-77
2022/09/10 00:09:09;;;;;;;9.03;1.90;;;14.80;1.00;;;;;;5073762;28;20401;-77
2022/09/10 00:11:39;;;;;;;4.43;2.10;;;14.90;1.00;;;;;;5087117;28;20388;-77
2022/09/10 00:14:25;;;;;;;8.07;1.47;;;14.90;1.00;;;;;;5084978;28;20459;-76
2022/09/10 00:16:51;;;;;;;9.83;1.30;;;15.00;1.00;;;;;;5074010;28;20459;-82
2022/09/10 00:23:29;;;;;;;5.80;1.67;;;15.10;1.00;;;;;;5092766;28;20369;-82
2022/09/10 00:25:56;;;;;;;5.23;2.00;;;15.10;1.00;;;;;;5082868;28;20408;-83
2022/09/10 00:31:44;;;;;;;5.37;1.80;;;15.20;1.00;;;;;;5087676;28;20501;-77
2022/09/10 00:34:14;;;;;;;3.93;1.87;;;15.20;1.00;;;;;;5084127;28;20963;-77
2022/09/10 00:36:45;;;;;;;2.10;1.90;;;15.20;1.00;;;;;;5092512;28;20403;-77
2022/09/10 00:39:37;;;;;;;1.80;1.70;;;15.30;1.00;;;;;;5080087;28;20457;-77
2022/09/10 00:42:11;;;;;;;11.10;1.50;;;15.30;1.00;;;;;;5076688;28;20429;-77
2022/09/10 00:44:39;;;;;;;9.23;2.00;;;15.40;1.00;;;;;;5087286;28;20469;-77
2022/09/10 00:47:20;;;;;;;4.33;1.77;;;15.30;1.00;;;;;;5084109;28;20473;-77
2022/09/10 00:49:59;;;;;;;6.90;1.80;;;15.40;1.00;;;;;;5084821;28;20536;-77
2022/09/10 00:52:46;;;;;;;2.90;2.10;;;15.40;1.00;;;;;;5091214;28;20437;-77
2022/09/10 00:55:16;;;;;;;19.13;2.77;;;15.50;1.00;;;;;;5077691;28;20555;-76
2022/09/10 00:57:54;;;;;;;6.20;2.70;;;15.50;1.00;;;;;;5088884;28;20391;-76
2022/09/10 01:00:21;;;;;;;1.53;1.43;;;15.60;1.00;;;;;;5090428;28;20393;-76
2022/09/10 01:02:58;;;;;;;7.00;2.07;;;15.60;1.00;;;;;;5086543;28;20404;-76
2022/09/10 01:05:25;;;;;;;2.27;1.90;;;15.60;1.00;;;;;;5092161;28;20905;-77
2022/09/10 01:07:56;;;;;;;8.10;2.00;;;15.60;1.00;;;;;;5087947;28;20859;-77
2022/09/10 01:10:29;;;;;;;1.93;1.73;;;15.70;1.00;;;;;;5083329;28;20915;-77
2022/09/10 01:13:21;;;;;;;2.83;1.70;;;15.70;1.00;;;;;;5090457;28;20413;-77
2022/09/10 01:16:08;;;;;;;5.70;2.23;;;15.70;1.00;;;;;;5076891;28;20475;-77
2022/09/10 01:22:25;;;;;;;5.03;2.00;;;15.70;1.00;;;;;;5079543;28;20370;-83
2022/09/10 01:25:08;;;;;;;6.40;2.07;;;15.80;1.00;;;;;;5085149;28;21014;-83
2022/09/10 01:27:53;;;;;;;6.10;2.23;;;15.70;1.00;;;;;;5083332;28;20423;-83
2022/09/10 01:30:36;;;;;;;3.83;2.20;;;15.70;1.00;;;;;;5083189;28;20399;-82
2022/09/10 01:33:45;;;;;;;6.93;2.60;;;15.80;1.00;;;;;;5083450;28;20928;-82
2022/09/10 01:36:50;;;;;;;3.10;2.00;;;15.80;1.00;;;;;;5087380;28;20379;-83
2022/09/10 01:43:04;;;;;;;4.30;2.50;;;15.80;1.00;;;;;;5092377;28;20902;-82
2022/09/10 01:46:07;;;;;;;6.10;2.80;;;15.90;1.00;;;;;;5083787;28;20783;-82
2022/09/10 01:48:48;;;;;;;5.80;2.60;;;15.90;1.00;;;;;;5082613;28;20454;-77
2022/09/10 01:51:38;;;;;;;3.87;2.63;;;15.90;1.00;;;;;;5083883;28;20531;-76
2022/09/10 01:54:28;;;;;;;5.53;2.97;;;15.90;1.00;;;;;;5087717;28;20448;-77
2022/09/10 01:57:02;;;;;;;7.73;3.33;;;15.90;1.00;;;;;;5084252;28;20425;-77
2022/09/10 01:59:49;;;;;;;4.80;2.20;;;15.80;1.00;;;;;;5079655;28;20892;-77
2022/09/10 02:03:10;;;;;;;5.80;2.97;;;15.80;1.00;;;;;;5083530;28;20424;-83
2022/09/10 02:09:04;;;;;;;4.63;2.77;;;15.70;1.00;;;;;;5075101;28;20425;-83
2022/09/10 02:11:50;;;;;;;7.07;2.80;;;15.60;1.00;;;;;;5083568;28;20496;-83
2022/09/10 02:14:37;;;;;;;5.50;3.10;;;15.50;1.00;;;;;;5088914;28;20802;-83
2022/09/10 02:17:08;;;;;;;5.30;2.97;;;15.50;1.00;;;;;;5085353;28;20404;-83
2022/09/10 02:19:51;;;;;;;4.77;2.93;;;15.40;5.10;;;;;;5082129;28;20419;-83
2022/09/10 02:23:02;;;;;;;5.57;3.07;;;15.40;12.00;;;;;;5081784;28;20383;-83
2022/09/10 02:25:49;;;;;;;5.90;2.83;;;15.50;12.00;;;;;;5077554;28;20485;-83
2022/09/10 02:28:32;;;;;;;12.70;3.40;;;15.60;12.50;;;;;;5080116;28;20392;-83
2022/09/10 02:30:58;;;;;;;7.30;2.87;;;15.50;12.10;;;;;;5079896;28;20399;-84
2022/09/10 02:33:24;;;;;;;8.80;3.37;;;15.50;11.90;;;;;;5077619;28;20553;-77
2022/09/10 02:35:50;;;;;;;6.47;2.90;;;15.60;14.80;;;;;;5095604;28;20418;-77
2022/09/10 02:38:20;;;;;;;13.20;3.13;;;15.60;13.50;;;;;;5081381;28;20182;-77
2022/09/10 02:40:50;;;;;;;5.93;2.53;;;15.60;12.90;;;;;;5084190;28;20383;-77
2022/09/10 02:43:20;;;;;;;4.23;2.80;;;15.70;13.10;;;;;;5088272;28;20930;-77
2022/09/10 02:45:46;;;;;;;3.10;2.50;;;15.70;11.90;;;;;;5076328;28;20880;-77
2022/09/10 02:48:26;;;;;;;12.23;2.70;;;15.80;10.20;;;;;;5076909;28;20406;-83
2022/09/10 02:51:02;;;;;;;10.40;2.37;;;15.80;11.80;;;;;;5090441;28;20202;-83
2022/09/10 02:54:07;;;;;;;2.20;1.80;;;15.80;6.40;;;;;;5081747;28;20525;-83
2022/09/10 02:56:33;;;;;;;4.80;2.50;;;15.80;4.60;;;;;;5087691;28;20425;-83
2022/09/10 02:58:59;;;;;;;3.57;2.10;;;15.80;2.40;;;;;;5085659;28;20406;-83
2022/09/10 03:01:26;;;;;;;6.07;2.23;;;15.60;4.00;;;;;;5079640;28;20182;-83
2022/09/10 03:03:55;;;;;;;4.37;1.93;;;15.60;1.30;;;;;;5082223;28;20179;-77
2022/09/10 03:06:38;;;;;;;4.30;2.70;;;15.70;1.00;;;;;;5088141;28;20434;-77
2022/09/10 03:09:08;;;;;;;11.20;2.40;;;15.70;1.00;;;;;;5076977;28;20421;-77
2022/09/10 03:11:50;;;;;;;4.73;2.40;;;15.60;1.00;;;;;;5083689;28;20936;-77
2022/09/10 03:14:21;;;;;;;6.60;2.40;;;15.60;1.00;;;;;;5077027;28;20455;-77
2022/09/10 03:16:47;;;;;;;2.37;2.17;;;15.50;2.10;;;;;;5092743;28;20515;-77
2022/09/10 03:19:13;;;;;;;5.43;1.70;;;15.60;8.90;;;;;;5091211;28;20480;-77
2022/09/10 03:21:40;;;;;;;4.53;2.33;;;15.60;4.60;;;;;;5084044;28;20896;-77
2022/09/10 03:24:14;;;;;;;9.13;2.67;;;15.60;1.80;;;;;;5072331;28;20874;-78
2022/09/10 03:27:19;;;;;;;5.33;2.20;;;15.60;6.10;;;;;;5086184;28;20691;-77
2022/09/10 03:29:50;;;;;;;4.60;2.00;;;15.60;2.90;;;;;;5084089;28;20444;-77
2022/09/10 03:32:20;;;;;;;21.10;2.47;;;15.60;1.00;;;;;;5089572;28;20780;-77
2022/09/10 03:34:50;;;;;;;6.60;2.00;;;15.60;3.10;;;;;;5075607;28;20456;-76
2022/09/10 03:37:22;;;;;;;3.93;1.90;;;15.60;1.00;;;;;;5087649;28;20407;-76
2022/09/10 03:39:50;;;;;;;5.43;2.10;;;15.50;1.00;;;;;;5086814;28;20415;-77
2022/09/10 03:42:49;;;;;;;2.83;1.90;;;15.60;5.40;;;;;;5080571;28;20476;-77
2022/09/10 03:45:15;;;;;;;2.83;1.70;;;15.60;1.00;;;;;;5083734;28;20431;-77
2022/09/10 03:47:56;;;;;;;6.73;2.30;;;15.60;1.00;;;;;;5075325;28;20737;-78
2022/09/10 03:50:22;;;;;;;10.53;2.00;;;15.40;1.70;;;;;;5080219;28;20202;-77
2022/09/10 03:52:50;;;;;;;2.70;1.93;;;15.40;2.70;;;;;;5079786;28;20376;-77
2022/09/10 03:55:16;;;;;;;3.80;2.00;;;15.40;2.60;;;;;;5076278;28;20198;-77
2022/09/10 03:57:42;;;;;;;2.90;2.00;;;15.40;3.20;;;;;;5087241;28;20427;-77
2022/09/10 04:00:20;;;;;;;6.80;2.20;;;15.40;3.10;;;;;;5080277;28;20414;-77
2022/09/10 04:02:50;;;;;;;2.63;2.00;;;15.40;1.70;;;;;;5092736;28;20213;-78
2022/09/10 04:05:20;;;;;;;2.23;1.90;;;15.40;1.10;;;;;;5073587;28;20405;-76
2022/09/10 04:07:57;;;;;;;2.40;1.80;;;15.40;2.40;;;;;;5086050;28;20931;-76
2022/09/10 04:10:50;;;;;;;8.83;2.57;;;15.40;3.80;;;;;;5081372;28;20417;-77
2022/09/10 04:13:15;;;;;;;2.50;2.30;;;15.30;5.90;;;;;;5081528;28;20426;-76
2022/09/10 04:15:47;;;;;;;4.53;2.27;;;15.40;6.90;;;;;;5078780;28;20536;-77
2022/09/10 04:18:27;;;;;;;5.90;2.67;;;15.40;7.60;;;;;;5078050;28;20171;-83
2022/09/10 04:21:26;;;;;;;4.43;2.27;;;15.30;7.70;;;;;;5089742;28;20427;-83
2022/09/10 04:23:55;;;;;;;4.60;2.33;;;15.40;8.20;;;;;;5085316;28;20402;-83
2022/09/10 04:26:38;;;;;;;4.30;2.90;;;15.40;6.80;;;;;;5084365;28;20397;-82
2022/09/10 04:29:08;;;;;;;8.57;3.17;;;15.30;9.80;;;;;;5077394;28;20392;-83
2022/09/10 04:31:50;;;;;;;3.30;3.00;;;15.40;8.90;;;;;;5085327;28;20902;-83
2022/09/10 04:34:26;;;;;;;3.30;2.50;;;15.30;7.60;;;;;;5086485;28;20439;-82
2022/09/10 04:37:08;;;;;;;4.83;3.00;;;15.30;7.60;;;;;;5088337;28;20385;-83
2022/09/10 04:39:44;;;;;;;9.93;3.10;;;15.40;7.50;;;;;;5082177;28;20409;-83
2022/09/10 04:42:20;;;;;;;6.40;2.80;;;15.30;8.30;;;;;;5092133;28;20500;-83
2022/09/10 04:44:56;;;;;;;8.20;3.30;;;15.30;10.80;;;;;;5080859;28;20917;-82
2022/09/10 04:47:26;;;;;;;4.83;3.40;;;15.30;11.80;;;;;;5080711;28;20398;-82
2022/09/10 04:49:57;;;;;;;5.20;2.63;;;15.30;10.80;;;;;;5080471;28;20399;-77
2022/09/10 04:52:32;;;;;;;6.50;3.13;;;15.30;11.10;;;;;;5083751;28;20822;-76
2022/09/10 04:54:58;;;;;;;4.43;3.23;;;15.30;9.90;;;;;;5086816;28;20448;-77
2022/09/10 04:57:26;;;;;;;3.33;3.03;;;15.30;10.30;;;;;;5080407;28;20425;-77
2022/09/10 04:59:56;;;;;;;15.13;3.70;;;15.30;11.30;;;;;;5079463;28;20738;-76
2022/09/10 05:02:26;;;;;;;10.87;3.23;;;15.30;13.20;;;;;;5073850;28;20400;-76
2022/09/10 05:04:56;;;;;;;9.10;3.87;;;15.40;13.00;;;;;;5075686;28;20383;-75
2022/09/10 05:07:44;;;;;;;4.63;4.10;;;15.40;13.30;;;;;;5080314;28;20404;-77
2022/09/10 05:10:14;;;;;;;9.00;3.40;;;15.40;15.80;;;;;;5090576;28;20469;-75
2022/09/10 05:12:56;;;;;;;7.10;3.40;;;15.40;17.00;;;;;;5087210;28;20842;-76
2022/09/10 05:15:27;;;;;;;9.00;3.70;;;15.40;19.30;;;;;;5075073;28;20996;-76
2022/09/10 05:17:56;;;;;;;6.00;3.67;;;15.40;19.90;;;;;;5076746;28;20384;-77
2022/09/10 05:20:50;;;;;;;6.07;3.50;;;15.50;20.70;;;;;;5088797;28;20387;-77
2022/09/10 05:23:18;;;;;;;8.17;3.90;;;15.50;19.40;;;;;;5082234;28;20425;-76
2022/09/10 05:25:44;;;;;;;4.27;3.30;;;15.60;19.40;;;;;;5076419;28;20363;-76
2022/09/10 05:28:15;;;;;;;4.73;3.50;;;15.60;18.00;;;;;;5076781;28;20408;-75
2022/09/10 05:30:56;;;;;;;15.03;3.67;;;15.60;16.30;;;;;;5076187;28;20930;-76
2022/09/10 05:33:26;;;;;;;17.83;3.37;;;15.70;15.40;;;;;;5082637;28;20766;-76
2022/09/10 05:35:52;;;;;;;11.77;4.10;;;15.70;12.50;;;;;;5082814;28;20423;-76
2022/09/10 05:38:32;;;;;;;4.77;3.47;;;15.70;14.40;;;;;;5087942;28;20387;-76
2022/09/10 05:41:14;;;;;;;9.70;3.40;;;15.80;13.10;;;;;;5088185;28;20887;-76
2022/09/10 05:43:40;;;;;;;10.93;4.20;;;15.80;12.70;;;;;;5077885;28;20899;-77
2022/09/10 05:46:32;;;;;;;6.90;3.23;;;15.90;13.30;;;;;;5083788;28;20445;-76
2022/09/10 05:48:58;;;;;;;8.53;3.47;;;15.90;11.60;;;;;;5082407;28;20399;-76
2022/09/10 05:51:28;;;;;;;7.33;3.43;;;15.90;9.40;;;;;;5086762;28;20932;-78
2022/09/10 05:54:38;;;;;;;12.83;3.00;;;16.00;8.20;;;;;;5088985;28;20394;-78
2022/09/10 05:57:08;;;;;;;9.53;3.70;;;16.00;5.30;;;;;;5089061;28;20473;-78
2022/09/10 05:59:38;;;;;;;7.07;3.67;;;16.10;3.00;;;;;;5079587;28;20755;-78
2022/09/10 06:02:20;;;;;;;4.87;3.37;;;16.10;1.70;;;;;;5081225;28;20413;-78
2022/09/10 06:05:14;;;;;;;5.63;3.60;;;16.10;3.70;;;;;;5082357;28;20402;-77
2022/09/10 06:07:39;;;;;;;6.03;3.13;;;16.10;5.50;;;;;;5084216;28;20422;-76
2022/09/10 06:10:14;;;;;;;5.07;3.10;;;16.20;3.70;;;;;;5082162;28;20375;-76
2022/09/10 06:12:45;;;;;;;2.90;2.70;;;16.20;1.90;;;;;;5080401;28;20638;-76
2022/09/10 06:15:33;;;;;;;3.10;2.80;;;16.10;1.60;;;;;;5076189;28;20453;-77
2022/09/10 06:18:08;;;;;;;4.43;3.67;;;16.10;4.20;;;;;;5088643;28;20375;-76
2022/09/10 06:20:34;;;;;;;4.47;3.27;;;16.10;3.10;;;;;;5084163;28;20400;-77
2022/09/10 06:23:02;;;;;;;8.70;3.70;;;16.10;5.70;;;;;;5078598;28;20429;-77
2022/09/10 06:25:44;;;;;;;6.97;3.03;;;16.10;7.00;;;;;;5083785;28;20179;-77
2022/09/10 06:28:27;;;;;;;5.90;3.27;;;16.10;8.70;;;;;;5077063;28;20435;-77
2022/09/10 06:30:56;;;;;;;4.53;2.87;;;16.10;7.30;;;;;;5088302;28;20398;-77
2022/09/10 06:33:33;;;;;;;6.03;3.03;;;16.20;7.80;;;;;;5082597;28;20459;-76
2022/09/10 06:36:20;;;;;;;3.97;2.73;;;16.20;10.80;;;;;;5090209;28;20431;-76
2022/09/10 06:38:56;;;;;;;3.37;3.00;;;16.30;9.30;;;;;;5083767;28;20448;-77
2022/09/10 06:41:29;;;;;;;6.30;3.40;;;16.30;6.90;;;;;;5080753;28;20537;-76
2022/09/10 06:43:56;;;;;;;8.03;3.00;;;16.30;8.40;;;;;;5087953;28;20456;-78
2022/09/10 06:46:22;;;;;;;7.67;3.10;;;16.40;9.40;;;;;;5074640;28;20405;-78
2022/09/10 06:48:50;;;;;;;5.93;2.90;;;16.40;6.40;;;;;;5088011;28;20405;-77
2022/09/10 06:51:26;;;;;;;3.30;2.53;;;16.30;6.60;;;;;;5085628;28;20200;-79
2022/09/10 06:54:02;;;;;;;3.30;3.00;;;16.30;6.00;;;;;;5081086;28;20866;-79
2022/09/10 06:56:38;;;;;;;3.00;2.70;;;16.30;5.60;;;;;;5080890;28;20395;-79
2022/09/10 06:59:25;;;;;;;2.93;2.60;;;16.30;1.80;;;;;;5085906;28;20441;-79
2022/09/10 07:02:08;;;;;;;5.40;3.20;;;16.30;4.10;;;;;;5088316;28;20384;-78
2022/09/10 07:04:50;;;;;;;5.37;3.40;;;16.30;2.90;;;;;;5087004;28;20396;-77
2022/09/10 07:07:50;;;;;;;8.57;3.40;;;16.30;6.50;;;;;;5086298;28;20607;-82
2022/09/10 07:10:21;;;;;;;4.67;2.97;;;16.30;8.80;;;;;;5076499;28;20473;-83
2022/09/10 07:12:47;;;;;;;5.13;3.20;;;16.30;7.20;;;;;;5078595;28;20920;-82
2022/09/10 07:15:13;;;;;;;3.70;3.40;;;16.40;12.80;;;;;;5074012;28;20556;-82
2022/09/10 07:17:56;;;;;;;4.43;3.07;;;16.70;8.70;;;;;;5087946;28;20216;-83
2022/09/10 07:20:32;;;;;;;8.70;3.10;;;16.90;2.30;;;;;;5083810;28;20653;-82
2022/09/10 07:23:10;;;;;;;4.53;3.10;;;16.90;1.00;;;;;;5078190;28;21005;-82
2022/09/10 07:25:36;;;;;;;5.57;2.80;;;16.90;1.00;;;;;;5081876;28;20409;-82
2022/09/10 07:28:12;;;;;;;4.93;2.90;;;16.90;1.00;;;;;;5086464;28;20399;-82
2022/09/10 07:30:40;;;;;;;3.17;2.80;;;16.80;1.00;;;;;;5087114;28;20413;-81
2022/09/10 07:33:26;;;;;;;5.10;3.00;;;16.60;1.00;;;;;;5079903;28;20479;-83
2022/09/10 07:36:20;;;;;;;5.40;2.87;;;16.70;1.00;;;;;;5080648;28;20998;-81
2022/09/10 07:39:00;;;;;;;3.37;3.03;;;16.70;1.00;;;;;;5086249;28;20401;-77
2022/09/10 07:41:30;;;;;;;7.77;3.23;;;16.70;1.00;;;;;;5073704;28;20449;-77
2022/09/10 07:43:56;;;;;;;2.83;2.60;;;16.60;1.00;;;;;;5080994;28;20379;-77
2022/09/10 07:46:32;;;;;;;5.50;3.20;;;16.70;1.00;;;;;;5076155;28;20429;-77
2022/09/10 07:49:14;;;;;;;4.13;2.97;;;16.90;1.00;;;;;;5079257;28;20806;-77
2022/09/10 07:52:02;;;;;;;3.13;2.90;;;17.00;1.00;;;;;;5089408;28;20476;-81
2022/09/10 07:54:38;;;;;;;3.47;3.17;;;17.00;1.00;;;;;;5079351;28;20963;-82
2022/09/10 07:57:08;;;;;;;6.20;3.17;;;17.10;1.00;;;;;;5080651;28;20857;-81
2022/09/10 08:00:03;;;;;;;5.53;3.00;;;17.20;1.00;;;;;;5090609;28;20804;-81
2022/09/10 08:02:45;;;;;;;7.93;3.33;;;17.40;1.00;;;;;;5083418;28;20434;-81
2022/09/10 08:05:15;;;;;;;4.80;3.10;;;17.60;1.00;;;;;;5090153;28;20896;-81
2022/09/10 08:07:44;;;;;;;6.57;3.63;;;17.80;1.00;;;;;;5089262;28;20915;-77
2022/09/10 08:10:10;;;;;;;7.13;3.20;;;17.80;1.00;;;;;;5087462;28;20436;-77
2022/09/10 08:12:38;;;;;;;3.17;2.90;;;18.10;1.00;;;;;;5085046;28;20855;-77
2022/09/10 08:15:05;;;;;;;3.33;2.87;;;18.20;1.00;;;;;;5091325;28;20460;-77
2022/09/10 08:17:31;;;;;;;2.93;2.63;;;18.30;1.00;;;;;;5089808;28;20385;-77
2022/09/10 08:20:14;;;;;;;3.47;2.80;;;18.20;1.00;;;;;;5073821;28;20775;-77
2022/09/10 08:23:27;;;;;;;5.87;2.80;;;18.50;1.00;;;;;;5076508;28;20402;-81
2022/09/10 08:26:44;;;;;;;7.30;2.60;;;18.70;1.00;;;;;;5073245;28;20478;-81
2022/09/10 08:29:33;;;;;;;3.03;2.60;;;19.00;1.00;;;;;;5075749;28;21031;-81
2022/09/10 08:32:20;;;;;;;5.03;2.33;;;19.20;1.00;;;;;;5076449;28;20914;-83
2022/09/10 08:38:09;;;;;;;4.20;1.70;;;19.60;1.00;;;;;;5077176;28;20486;-78
2022/09/10 08:40:39;;;;;;;4.80;2.23;;;19.70;1.00;;;;;;5080857;28;20463;-74
2022/09/10 08:43:09;;;;;;;10.67;2.53;;;19.60;1.00;;;;;;5091214;28;20414;-75
2022/09/10 08:45:37;;;;;;;3.70;2.40;;;19.70;1.00;;;;;;5094666;28;20418;-77
2022/09/10 08:48:18;;;;;;;4.00;2.10;;;19.70;1.00;;;;;;5083658;28;20404;-77
2022/09/10 08:50:54;;;;;;;7.10;1.80;;;19.70;1.00;;;;;;5086587;28;20781;-77
2022/09/10 08:53:45;;;;;;;5.90;1.87;;;19.60;1.00;;;;;;5082900;28;20431;-77
2022/09/10 08:56:18;;;;;;;3.27;2.13;;;19.40;1.00;;;;;;5087745;28;20450;-76
2022/09/10 08:59:16;;;;;;;6.10;2.50;;;19.30;1.00;;;;;;5087466;28;21026;-76
2022/09/10 09:01:55;;;;;;;6.87;2.10;;;19.30;1.00;;;;;;5079240;28;20426;-76
2022/09/10 09:04:48;;;;;;;3.87;2.47;;;19.10;1.00;;;;;;5084144;28;20863;-76
2022/09/10 09:07:18;;;;;;;3.80;2.23;;;18.90;1.00;;;;;;5077060;28;20392;-80
2022/09/10 09:09:47;;;;;;;10.73;2.30;;;18.90;1.00;;;;;;5086489;28;20452;-80
2022/09/10 09:12:28;;;;;;;6.10;2.57;;;18.90;1.00;;;;;;5076765;28;20470;-77
2022/09/10 09:15:09;;;;;;;3.33;2.73;;;18.80;1.00;;;;;;5085621;28;20443;-76
2022/09/10 09:18:14;;;;;;;5.20;2.43;;;18.70;1.00;;;;;;5090156;28;20408;-76
2022/09/10 09:20:45;;;;;;;6.77;3.10;;;18.70;1.00;;;;;;5048446;28;20528;-76
2022/09/10 09:23:34;;;;;;;2.63;2.40;;;18.70;1.00;;;;;;5053937;28;20897;-77
2022/09/10 09:26:10;;;;;;;6.83;2.63;;;18.70;1.00;;;;;;5053606;28;20444;-77
2022/09/10 09:28:45;;;;;;;9.93;3.20;;;18.60;1.00;;;;;;5054088;28;20424;-77
2022/09/10 09:31:15;;;;;;;8.47;2.60;;;18.70;1.00;;;;;;5053790;28;20403;-76
2022/09/10 09:33:44;;;;;;;2.40;2.03;;;19.00;1.00;;;;;;5053084;28;20440;-76
2022/09/10 09:36:17;;;;;;;4.27;2.00;;;19.40;1.00;;;;;;5050839;28;20443;-76
2022/09/10 09:38:47;;;;;;;2.40;2.10;;;19.80;1.00;;;;;;5053876;28;20400;-81
2022/09/10 09:41:33;;;;;;;5.63;2.30;;;19.90;1.00;;;;;;5053846;28;20417;-81
2022/09/10 09:44:24;;;;;;;5.07;2.07;;;20.20;1.00;;;;;;5035934;28;20499;-81
2022/09/10 09:47:20;;;;;;;7.50;1.83;;;20.50;1.00;;;;;;5053610;28;20446;-81
2022/09/10 09:50:10;;;;;;;6.70;2.13;;;20.50;1.00;;;;;;5053500;28;20402;-81
2022/09/10 09:52:37;;;;;;;3.07;1.57;;;20.30;1.00;;;;;;5041865;28;20964;-76
2022/09/10 09:55:12;;;;;;;3.77;1.80;;;20.20;1.00;;;;;;5053578;28;20456;-76
2022/09/10 09:57:41;;;;;;;7.40;2.20;;;20.00;1.00;;;;;;5065822;28;20771;-76
2022/09/10 10:00:34;;;;;;;4.70;2.20;;;19.90;1.00;;;;;;5079242;28;20423;-76
2022/09/10 10:03:21;;;;;;;4.07;2.30;;;19.60;1.00;;;;;;5082134;28;20443;-75
2022/09/10 10:05:47;;;;;;;15.33;2.50;;;19.50;1.00;;;;;;5075632;28;20367;-76
2022/09/10 10:08:56;;;;;;;3.20;1.97;;;19.20;1.00;;;;;;5080590;28;20399;-84
2022/09/10 10:11:44;;;;;;;6.57;2.40;;;19.10;1.00;;;;;;5091447;28;20446;-84
2022/09/10 10:14:41;;;;;;;6.73;2.10;;;19.00;1.00;;;;;;5084064;28;20953;-84
2022/09/10 10:20:37;;;;;;;8.10;1.97;;;18.80;1.00;;;;;;5088956;28;20445;-81
2022/09/10 10:23:35;;;;;;;5.33;2.30;;;18.70;1.00;;;;;;5084224;28;20918;-77
2022/09/10 10:26:19;;;;;;;4.13;1.70;;;18.70;1.00;;;;;;5013077;28;20427;-76
2022/09/10 10:28:57;;;;;;;10.47;2.33;;;18.70;1.00;;;;;;5013142;28;20414;-75
2022/09/10 10:31:48;;;;;;;7.87;3.00;;;18.70;1.00;;;;;;5009014;28;20415;-76
2022/09/10 10:34:53;;;;;;;3.83;1.90;;;18.60;1.00;;;;;;5014389;28;20520;-77
2022/09/10 10:37:30;;;;;;;9.60;2.07;;;18.40;1.00;;;;;;4996456;28;20513;-81
2022/09/10 10:40:32;;;;;;;3.00;1.90;;;18.60;1.00;;;;;;5013191;28;21027;-81
2022/09/10 10:43:41;;;;;;;9.10;3.47;;;18.70;1.00;;;;;;4945567;28;20422;-80
2022/09/10 10:46:37;;;;;;;4.70;2.10;;;19.00;1.00;;;;;;4928157;29;20825;-80
2022/09/10 10:49:26;;;;;;;7.60;2.00;;;19.20;1.00;;;;;;4914649;29;20556;-80
2022/09/10 10:52:18;;;;;;;5.80;2.00;;;19.40;1.00;;;;;;4920191;29;20451;-80
2022/09/10 10:55:10;;;;;;;4.07;1.80;;;19.70;1.00;;;;;;4916425;29;20478;-76
2022/09/10 10:58:13;;;;;;;8.23;2.37;;;20.20;1.00;;;;;;4916405;29;20803;-77
2022/09/10 11:00:56;;;;;;;7.23;2.30;;;20.50;1.00;;;;;;4923107;29;20402;-77
2022/09/10 11:03:41;;;;;;;5.50;2.20;;;20.70;1.00;;;;;;4957451;28;20423;-77
2022/09/10 11:06:13;;;;;;;15.83;2.40;;;20.40;1.00;;;;;;4954415;28;20843;-76
2022/09/10 11:09:06;;;;;;;3.83;1.70;;;20.50;1.00;;;;;;4966996;28;20442;-76
2022/09/10 11:12:00;;;;;;;11.00;3.00;;;20.80;1.00;;;;;;4949621;29;20474;-76
2022/09/10 11:14:36;;;;;;;7.87;2.53;;;21.30;1.00;;;;;;4947867;29;20470;-76
2022/09/10 11:17:11;;;;;;;6.47;1.90;;;21.30;1.00;;;;;;4955619;28;20446;-78
2022/09/10 11:19:43;;;;;;;9.10;1.43;;;21.10;1.00;;;;;;5006433;28;20402;-76
2022/09/10 11:22:24;;;;;;;4.83;1.50;;;21.20;1.00;;;;;;5042832;28;20434;-76
2022/09/10 11:25:02;;;;;;;6.37;2.07;;;21.40;1.00;;;;;;5074166;28;20390;-82
2022/09/10 11:27:57;;;;;;;3.40;1.83;;;21.60;1.00;;;;;;5088361;28;20484;-82
2022/09/10 11:30:32;;;;;;;5.43;1.53;;;21.80;1.00;;;;;;5077143;28;20447;-82
2022/09/10 11:33:20;;;;;;;10.37;1.80;;;21.80;1.00;;;;;;5085128;28;20959;-83
2022/09/10 11:36:32;;;;;;;5.97;1.77;;;22.00;1.00;;;;;;5073598;28;20436;-82
2022/09/10 11:39:12;;;;;;;2.90;1.60;;;22.40;1.00;;;;;;5093145;28;20415;-82
2022/09/10 11:41:53;;;;;;;3.63;1.33;;;22.70;1.00;;;;;;5092228;28;20432;-82
2022/09/10 11:45:10;;;;;;;5.63;1.67;;;22.70;1.00;;;;;;5073011;28;20409;-82
2022/09/10 11:48:19;;;;;;;2.17;1.27;;;22.40;1.00;;;;;;5012877;28;20431;-83
2022/09/10 11:51:18;;;;;;;2.43;1.40;;;22.10;1.00;;;;;;4947578;29;20473;-82
2022/09/10 11:53:44;;;;;;;3.60;1.23;;;22.00;1.00;;;;;;4948013;28;20471;-82
2022/09/10 11:57:01;;;;;;;2.03;1.00;;;22.10;1.00;;;;;;4953469;29;20560;-82
2022/09/10 12:03:44;;;;;;;5.67;1.40;;;21.30;1.00;;;;;;4953225;29;20467;-81
2022/09/10 12:06:25;;;;;;;3.60;1.00;;;21.50;1.00;;;;;;4935274;29;20524;-82
2022/09/10 12:08:58;;;;;;;3.53;1.10;;;21.40;1.00;;;;;;4949467;29;20432;-81
2022/09/10 12:11:46;;;;;;;3.80;1.37;;;21.50;1.00;;;;;;4953382;29;21200;-81
2022/09/10 12:14:20;;;;;;;3.60;1.40;;;21.90;1.00;;;;;;4954418;28;20426;-80
2022/09/10 12:17:24;;;;;;;3.23;1.20;;;22.30;1.00;;;;;;4955974;29;20483;-81
2022/09/10 12:19:54;;;;;;;4.20;1.20;;;22.40;1.00;;;;;;4947931;29;20442;-81
2022/09/10 12:22:29;;;;;;;7.80;1.23;;;22.60;1.00;;;;;;4949314;28;20424;-80
2022/09/10 12:25:04;;;;;;;2.93;1.10;;;22.90;1.00;;;;;;5007541;28;20945;-75
2022/09/10 12:27:50;;;;;;;1.40;1.27;;;23.30;1.00;;;;;;5091789;28;20973;-75
2022/09/10 12:30:35;;;;;;;1.30;0.70;;;23.40;1.00;;;;;;5083907;28;20415;-78
2022/09/10 12:33:20;;;;;;;2.07;1.10;;;23.90;1.00;;;;;;5082755;28;20940;-76
2022/09/10 12:35:48;;;;;;;2.17;1.03;;;23.90;1.00;;;;;;5080302;28;20989;-75
2022/09/10 12:38:44;;;;;;;3.13;0.80;;;23.80;1.00;;;;;;5079180;28;20486;-75
2022/09/10 12:41:20;;;;;;;1.30;0.67;;;23.30;1.00;;;;;;5082928;28;20463;-75
2022/09/10 12:43:46;;;;;;;1.00;0.80;;;22.90;1.00;;;;;;5090174;28;20427;-75
2022/09/10 12:46:12;;;;;;;1.60;0.70;;;22.40;1.00;;;;;;5084698;28;20497;-75
2022/09/10 12:48:49;;;;;;;0.77;0.60;;;22.00;1.00;;;;;;5083240;28;20431;-75
2022/09/10 12:51:45;;;;;;;2.60;1.07;;;21.90;1.00;;;;;;5083662;28;20460;-84
2022/09/10 12:54:45;;;;;;;3.00;0.80;;;21.80;1.00;;;;;;5104184;28;20519;-76
2022/09/10 12:57:20;;;;;;;4.10;0.87;;;22.00;1.00;;;;;;5085893;28;20800;-77
2022/09/10 12:59:55;;;;;;;1.07;0.80;;;22.00;1.00;;;;;;5082348;28;20432;-76
2022/09/10 13:02:48;;;;;;;0.83;0.83;;;22.20;1.00;;;;;;5082051;28;20414;-76
2022/09/10 13:05:28;;;;;;;0.90;0.70;;;22.10;1.00;;;;;;5079530;28;20442;-76
2022/09/10 13:08:14;;;;;;;0.90;0.60;;;22.20;1.00;;;;;;5079596;28;20770;-76
2022/09/10 13:11:02;;;;;;;10.03;1.10;;;22.20;1.00;;;;;;5085547;28;20473;-78
2022/09/10 13:13:55;;;;;;;1.60;0.90;;;22.20;1.00;;;;;;5085979;28;20412;-79
2022/09/10 13:16:54;;;;;;;2.50;1.00;;;22.10;1.00;;;;;;5077262;28;20455;-79
2022/09/10 13:19:20;;;;;;;1.53;1.00;;;22.10;1.00;;;;;;5064038;28;20394;-79
2022/09/10 13:21:56;;;;;;;4.30;1.10;;;22.40;1.00;;;;;;5096580;28;20874;-78
2022/09/10 13:24:37;;;;;;;0.73;0.60;;;22.60;1.00;;;;;;5083258;28;20410;-78
2022/09/10 13:27:09;;;;;;;4.43;0.83;;;23.00;1.00;;;;;;5087855;28;20765;-77
2022/09/10 13:29:45;;;;;;;1.80;0.80;;;22.90;1.00;;;;;;5085933;28;20915;-76
2022/09/10 13:32:44;;;;;;;1.40;0.70;;;23.00;1.00;;;;;;5078377;28;20483;-76
2022/09/10 13:35:53;;;;;;;1.53;0.70;;;23.60;1.00;;;;;;5084413;28;20514;-77
2022/09/10 13:38:31;;;;;;;0.80;0.63;;;23.80;1.00;;;;;;5096428;28;20348;-77
2022/09/10 13:41:03;;;;;;;0.70;0.60;;;24.00;1.00;;;;;;5095187;28;20414;-75
2022/09/10 13:43:56;;;;;;;2.67;0.60;;;24.20;1.00;;;;;;5089569;28;20415;-75
2022/09/10 13:46:54;;;;;;;3.23;0.90;;;24.50;1.00;;;;;;5078528;28;20409;-75
2022/09/10 13:49:59;;;;;;;1.90;0.60;;;24.80;1.00;;;;;;5013740;28;20449;-75
2022/09/10 13:52:29;;;;;;;1.43;0.67;;;25.00;1.00;;;;;;5003432;28;20405;-75
2022/09/10 13:54:58;;;;;;;0.70;0.70;;;25.00;1.00;;;;;;4999983;28;20449;-79
2022/09/10 13:57:37;;;;;;;2.00;0.70;;;24.80;1.00;;;;;;5005628;28;20458;-79
2022/09/10 14:00:26;;;;;;;1.30;0.67;;;24.80;1.00;;;;;;4980822;28;20431;-80
2022/09/10 14:03:13;;;;;;;1.00;0.70;;;24.60;1.00;;;;;;5004922;28;20432;-80
2022/09/10 14:05:57;;;;;;;1.33;0.60;;;24.80;1.00;;;;;;4982426;28;20433;-79
2022/09/10 14:09:16;;;;;;;0.60;0.50;;;24.60;1.00;;;;;;4994002;28;20571;-79
2022/09/10 14:11:42;;;;;;;1.43;0.60;;;24.30;1.00;;;;;;4936171;29;20944;-75
2022/09/10 14:14:14;;;;;;;0.50;0.50;;;24.30;1.00;;;;;;4935877;29;20493;-75
2022/09/10 14:16:45;;;;;;;1.37;0.63;;;24.20;1.00;;;;;;4935170;29;20473;-75
2022/09/10 14:19:22;;;;;;;0.70;0.60;;;23.90;1.00;;;;;;4935776;29;20434;-76
2022/09/10 14:21:52;;;;;;;4.43;0.53;;;23.80;1.00;;;;;;4933555;29;20879;-77
2022/09/10 14:24:38;;;;;;;0.70;0.70;;;24.00;1.00;;;;;;4948411;29;20753;-76
2022/09/10 14:27:29;;;;;;;0.70;0.60;;;23.60;1.00;;;;;;4973060;28;20977;-75
2022/09/10 14:30:14;;;;;;;0.70;0.67;;;23.60;1.00;;;;;;4991352;28;20442;-75